createdAt,value
2018-11-03T00:01:40.823Z,7.89
2018-11-03T00:03:43.896Z,7.84
2018-11-03T00:05:46.944Z,7.87
2018-11-03T00:07:49.971Z,7.92
2018-11-03T00:09:52.967Z,8.03
2018-11-03T00:11:56.321Z,8.06
2018-11-03T00:13:59.351Z,7.90
2018-11-03T00:16:04.165Z,7.87
2018-11-03T00:18:07.657Z,7.82
2018-11-03T00:20:10.693Z,7.78
2018-11-03T00:22:13.792Z,8.11
2018-11-03T00:24:17.070Z,8.02
2018-11-03T00:26:20.119Z,7.86
2018-11-03T00:28:23.129Z,7.81
2018-11-03T00:30:26.688Z,7.83
2018-11-03T00:32:29.709Z,7.82
2018-11-03T00:34:34.084Z,7.72
2018-11-03T00:36:37.135Z,7.75
2018-11-03T00:38:40.117Z,7.75
2018-11-03T00:40:43.213Z,7.77
2018-11-03T00:42:46.209Z,7.76
2018-11-03T00:44:49.206Z,7.92
2018-11-03T00:46:52.229Z,8.01
2018-11-03T00:48:55.289Z,8.08
2018-11-03T00:50:58.293Z,8.08
2018-11-03T00:53:01.311Z,7.94
2018-11-03T00:55:06.817Z,7.86
2018-11-03T00:57:09.829Z,7.82
2018-11-03T00:59:12.897Z,7.79
2018-11-03T01:01:15.897Z,7.92
2018-11-03T01:03:18.976Z,8.05
2018-11-03T01:05:22.009Z,8.00
2018-11-03T01:07:25.023Z,7.88
2018-11-03T01:09:28.110Z,7.80
2018-11-03T01:11:31.140Z,7.76
2018-11-03T01:13:35.836Z,7.76
2018-11-03T01:15:38.903Z,7.72
2018-11-03T01:17:41.939Z,7.74
2018-11-03T01:19:45.250Z,7.70
2018-11-03T01:21:48.305Z,7.74
2018-11-03T01:23:51.371Z,7.73
2018-11-03T01:25:54.458Z,7.71
2018-11-03T01:27:57.592Z,8.06
2018-11-03T01:30:00.665Z,8.26
2018-11-03T01:32:05.716Z,8.13
2018-11-03T01:34:08.832Z,8.00
2018-11-03T01:36:11.896Z,8.10
2018-11-03T01:38:14.969Z,8.07
2018-11-03T01:40:18.073Z,7.91
2018-11-03T01:42:21.422Z,7.81
2018-11-03T01:44:24.420Z,7.73
2018-11-03T01:46:27.434Z,7.61
2018-11-03T01:48:30.468Z,7.60
2018-11-03T01:50:35.295Z,7.56
2018-11-03T01:52:39.267Z,7.58
2018-11-03T01:54:42.235Z,7.61
2018-11-03T01:56:45.392Z,7.59
2018-11-03T01:58:49.044Z,7.71
2018-11-03T02:00:52.131Z,7.66
2018-11-03T02:02:55.179Z,7.70
2018-11-03T02:04:58.306Z,7.83
2018-11-03T02:07:01.448Z,8.11
2018-11-03T02:09:07.271Z,8.14
2018-11-03T02:11:10.828Z,7.97
2018-11-03T02:13:13.872Z,7.98
2018-11-03T02:15:16.938Z,7.82
2018-11-03T02:17:20.036Z,7.69
2018-11-03T02:19:25.941Z,7.77
2018-11-03T02:21:28.989Z,7.97
2018-11-03T02:23:32.351Z,7.98
2018-11-03T02:25:35.820Z,7.95
2018-11-03T02:27:38.858Z,7.77
2018-11-03T02:29:42.213Z,7.81
2018-11-03T02:31:45.303Z,7.92
2018-11-03T02:33:48.331Z,7.85
2018-11-03T02:35:51.418Z,7.91
2018-11-03T02:37:54.454Z,8.04
2018-11-03T02:39:57.564Z,8.01
2018-11-03T02:42:00.638Z,8.09
2018-11-03T02:44:05.516Z,8.17
2018-11-03T02:46:08.539Z,8.17
2018-11-03T02:48:11.582Z,7.93
2018-11-03T02:50:14.652Z,7.92
2018-11-03T02:52:17.813Z,7.86
2018-11-03T02:54:20.902Z,7.90
2018-11-03T02:56:23.980Z,7.82
2018-11-03T02:58:27.081Z,7.72
2018-11-03T03:00:30.145Z,7.91
2018-11-03T03:02:34.704Z,8.00
2018-11-03T03:04:37.758Z,7.98
2018-11-03T03:06:40.889Z,7.85
2018-11-03T03:08:45.389Z,7.80
2018-11-03T03:10:48.488Z,7.76
2018-11-03T03:12:51.600Z,7.84
2018-11-03T03:14:54.704Z,7.95
2018-11-03T03:16:57.801Z,7.98
2018-11-03T03:19:00.857Z,7.94
2018-11-03T03:21:06.014Z,8.14
2018-11-03T03:23:09.136Z,8.29
2018-11-03T03:25:12.271Z,8.17
2018-11-03T03:27:15.345Z,8.08
2018-11-03T03:29:18.400Z,8.09
2018-11-03T03:31:21.542Z,8.08
2018-11-03T03:33:24.630Z,8.08
2018-11-03T03:35:27.635Z,7.99
2018-11-03T03:37:30.652Z,7.92
2018-11-03T03:39:35.194Z,7.91
2018-11-03T03:41:38.682Z,7.83
2018-11-03T03:43:41.697Z,7.82
2018-11-03T03:45:44.710Z,7.78
2018-11-03T03:47:47.697Z,7.73
2018-11-03T03:49:50.860Z,8.27
2018-11-03T03:51:53.854Z,8.07
2018-11-03T03:53:57.201Z,7.95
2018-11-03T03:56:00.191Z,7.90
2018-11-03T03:58:04.915Z,7.89
2018-11-03T04:00:09.927Z,7.82
2018-11-03T04:02:13.061Z,7.89
2018-11-03T04:04:16.359Z,7.91
2018-11-03T04:06:19.399Z,7.78
2018-11-03T04:08:22.359Z,7.86
2018-11-03T04:10:25.675Z,7.83
2018-11-03T04:12:28.754Z,7.82
2018-11-03T04:14:33.403Z,7.76
2018-11-03T04:16:36.502Z,7.74
2018-11-03T04:18:39.652Z,8.14
2018-11-03T04:20:42.628Z,7.92
2018-11-03T04:22:45.938Z,7.83
2018-11-03T04:24:48.927Z,7.75
2018-11-03T04:26:51.883Z,7.78
2018-11-03T04:28:55.570Z,7.77
2018-11-03T04:30:58.646Z,7.75
2018-11-03T04:33:03.271Z,7.74
2018-11-03T04:35:06.693Z,7.77
2018-11-03T04:37:09.688Z,7.75
2018-11-03T04:39:12.728Z,7.78
2018-11-03T04:41:15.812Z,7.78
2018-11-03T04:43:18.810Z,7.72
2018-11-03T04:45:21.858Z,7.78
2018-11-03T04:47:24.906Z,8.25
2018-11-03T04:49:27.969Z,8.25
2018-11-03T04:51:34.141Z,7.98
2018-11-03T04:53:37.238Z,7.83
2018-11-03T04:55:40.246Z,7.78
2018-11-03T04:57:43.221Z,8.07
2018-11-03T04:59:46.390Z,8.07
2018-11-03T05:01:49.510Z,8.00
2018-11-03T05:03:52.514Z,7.99
2018-11-03T05:05:55.658Z,7.83
2018-11-03T05:07:58.707Z,7.76
2018-11-03T05:10:03.458Z,7.81
2018-11-03T05:12:06.443Z,7.71
2018-11-03T05:14:10.048Z,7.70
2018-11-03T05:16:13.047Z,7.68
2018-11-03T05:18:16.039Z,7.75
2018-11-03T05:20:19.026Z,8.20
2018-11-03T05:22:22.121Z,8.08
2018-11-03T05:24:25.246Z,8.25
2018-11-03T05:26:28.227Z,8.06
2018-11-03T05:28:31.199Z,7.99
2018-11-03T05:30:35.563Z,8.08
2018-11-03T05:32:38.534Z,7.95
2018-11-03T05:34:41.563Z,7.98
2018-11-03T05:36:44.585Z,7.99
2018-11-03T05:38:47.683Z,8.00
2018-11-03T05:40:50.704Z,7.95
2018-11-03T05:42:53.700Z,7.79
2018-11-03T05:44:56.703Z,7.85
2018-11-03T05:47:00.184Z,7.96
2018-11-03T05:49:04.986Z,7.96
2018-11-03T05:51:08.014Z,7.95
2018-11-03T05:53:11.085Z,7.95
2018-11-03T05:55:14.076Z,7.90
2018-11-03T05:57:17.081Z,7.87
2018-11-03T05:59:20.095Z,7.86
2018-11-03T06:01:23.081Z,7.97
2018-11-03T06:03:26.145Z,7.93
2018-11-03T06:05:29.151Z,7.95
2018-11-03T06:07:33.804Z,7.85
2018-11-03T06:09:36.955Z,7.95
2018-11-03T06:11:40.215Z,8.02
2018-11-03T06:13:43.226Z,7.93
2018-11-03T06:15:46.251Z,7.93
2018-11-03T06:17:49.633Z,8.01
2018-11-03T06:19:52.614Z,8.05
2018-11-03T06:21:55.646Z,7.92
2018-11-03T06:23:58.663Z,7.97
2018-11-03T06:26:03.352Z,8.01
2018-11-03T06:28:06.730Z,8.04
2018-11-03T06:30:10.710Z,7.90
2018-11-03T06:32:13.810Z,7.85
2018-11-03T06:34:17.146Z,7.83
2018-11-03T06:36:20.175Z,7.89
2018-11-03T06:38:23.436Z,7.77
2018-11-03T06:40:26.450Z,7.88
2018-11-03T06:42:29.473Z,7.84
2018-11-03T06:44:34.185Z,7.79
2018-11-03T06:46:37.253Z,7.80
2018-11-03T06:48:40.355Z,7.89
2018-11-03T06:50:43.346Z,7.83
2018-11-03T06:52:46.368Z,7.81
2018-11-03T06:54:49.485Z,7.85
2018-11-03T06:56:52.509Z,8.02
2018-11-03T06:58:55.535Z,8.00
2018-11-03T07:00:58.533Z,8.21
2018-11-03T07:03:03.471Z,8.07
2018-11-03T07:05:07.135Z,7.97
2018-11-03T07:07:10.124Z,7.99
2018-11-03T07:09:13.302Z,8.09
2018-11-03T07:11:16.309Z,8.09
2018-11-03T07:13:19.379Z,8.04
2018-11-03T07:15:22.304Z,8.07
2018-11-03T07:17:25.295Z,8.08
2018-11-03T07:19:28.303Z,8.29
2018-11-03T07:21:33.013Z,8.44
2018-11-03T07:23:36.104Z,8.43
2018-11-03T07:25:39.079Z,8.41
2018-11-03T07:27:42.513Z,8.46
2018-11-03T07:29:45.519Z,8.42
2018-11-03T07:31:48.470Z,8.45
2018-11-03T07:33:51.526Z,8.28
2018-11-03T07:35:54.585Z,8.39
2018-11-03T07:37:57.583Z,8.52
2018-11-03T07:40:00.671Z,8.53
2018-11-03T07:42:05.472Z,8.57
2018-11-03T07:44:08.660Z,8.71
2018-11-03T07:46:11.627Z,8.81
2018-11-03T07:48:14.815Z,8.95
2018-11-03T07:50:17.731Z,8.64
2018-11-03T07:52:20.735Z,8.94
2018-11-03T07:54:23.777Z,8.93
2018-11-03T07:56:26.828Z,8.89
2018-11-03T07:58:29.827Z,9.04
2018-11-03T08:00:34.183Z,9.08
2018-11-03T08:02:37.093Z,9.04
2018-11-03T08:04:40.077Z,9.08
2018-11-03T08:06:43.392Z,9.31
2018-11-03T08:08:46.389Z,9.47
2018-11-03T08:10:49.478Z,9.59
2018-11-03T08:12:52.491Z,9.48
2018-11-03T08:14:55.501Z,9.56
2018-11-03T08:16:58.500Z,9.67
2018-11-03T08:19:01.591Z,9.59
2018-11-03T08:21:05.705Z,9.57
2018-11-03T08:23:08.778Z,9.68
2018-11-03T08:25:11.781Z,9.62
2018-11-03T08:27:14.832Z,9.72
2018-11-03T08:29:17.838Z,9.77
2018-11-03T08:31:20.948Z,9.99
2018-11-03T08:33:23.873Z,9.97
2018-11-03T08:35:26.904Z,10.07
2018-11-03T08:37:29.918Z,9.95
2018-11-03T08:39:34.576Z,10.18
2018-11-03T08:41:37.954Z,10.02
2018-11-03T08:43:40.973Z,10.15
2018-11-03T08:45:43.986Z,10.06
2018-11-03T08:47:47.011Z,10.20
2018-11-03T08:49:50.088Z,10.22
2018-11-03T08:51:53.399Z,10.19
2018-11-03T08:53:56.433Z,10.26
2018-11-03T08:55:59.554Z,10.32
2018-11-03T08:58:03.873Z,10.36
2018-11-03T09:00:11.716Z,10.54
2018-11-03T09:02:14.774Z,10.51
2018-11-03T09:04:17.756Z,10.68
2018-11-03T09:06:20.839Z,10.72
2018-11-03T09:08:23.968Z,10.90
2018-11-03T09:10:26.946Z,10.88
2018-11-03T09:12:30.331Z,10.88
2018-11-03T09:14:34.796Z,11.05
2018-11-03T09:16:37.820Z,11.09
2018-11-03T09:18:41.995Z,11.04
2018-11-03T09:20:44.989Z,11.30
2018-11-03T09:22:48.088Z,11.30
2018-11-03T09:24:51.091Z,11.29
2018-11-03T09:26:54.143Z,11.28
2018-11-03T09:28:57.178Z,11.37
2018-11-03T09:31:00.161Z,11.41
2018-11-03T09:33:04.776Z,11.33
2018-11-03T09:35:08.721Z,11.25
2018-11-03T09:37:11.787Z,11.44
2018-11-03T09:39:15.281Z,11.20
2018-11-03T09:41:18.177Z,11.37
2018-11-03T09:43:21.244Z,11.44
2018-11-03T09:45:24.241Z,11.52
2018-11-03T09:47:27.314Z,11.60
2018-11-03T09:49:33.610Z,11.69
2018-11-03T09:51:36.695Z,11.73
2018-11-03T09:53:39.914Z,11.71
2018-11-03T09:55:42.992Z,11.59
2018-11-03T09:57:46.075Z,11.81
2018-11-03T09:59:49.190Z,11.74
2018-11-03T10:01:52.354Z,11.85
2018-11-03T10:03:55.448Z,11.89
2018-11-03T10:05:58.604Z,11.95
2018-11-03T10:08:02.214Z,11.88
2018-11-03T10:10:09.150Z,11.90
2018-11-03T10:12:12.209Z,12.06
2018-11-03T10:14:15.320Z,12.07
2018-11-03T10:16:18.405Z,12.11
2018-11-03T10:18:21.513Z,12.19
2018-11-03T10:20:24.620Z,12.19
2018-11-03T10:22:27.706Z,12.25
2018-11-03T10:24:30.956Z,12.45
2018-11-03T10:26:35.613Z,12.33
2018-11-03T10:28:38.766Z,12.37
2018-11-03T10:30:41.822Z,12.53
2018-11-03T10:32:45.266Z,12.65
2018-11-03T10:34:48.266Z,12.53
2018-11-03T10:36:51.387Z,12.67
2018-11-03T10:38:54.490Z,12.82
2018-11-03T10:40:57.606Z,12.90
2018-11-03T10:43:00.705Z,12.93
2018-11-03T10:45:06.604Z,12.94
2018-11-03T10:47:09.713Z,13.09
2018-11-03T10:49:12.963Z,13.02
2018-11-03T10:51:15.990Z,13.15
2018-11-03T10:53:19.019Z,13.12
2018-11-03T10:55:22.053Z,12.88
2018-11-03T10:57:25.184Z,12.95
2018-11-03T10:59:28.192Z,12.94
2018-11-03T11:01:36.883Z,13.11
2018-11-03T11:03:45.633Z,13.24
2018-11-03T11:05:54.283Z,13.24
2018-11-03T11:08:02.979Z,13.48
2018-11-03T11:10:11.736Z,13.50
2018-11-03T11:12:20.621Z,13.42
2018-11-03T11:14:23.626Z,13.48
2018-11-03T11:16:26.678Z,13.50
2018-11-03T11:18:29.629Z,13.59
2018-11-03T11:20:33.204Z,13.42
2018-11-03T11:22:36.297Z,13.39
2018-11-03T11:24:39.450Z,13.62
2018-11-03T11:26:42.463Z,13.26
2018-11-03T11:28:45.511Z,13.24
2018-11-03T11:30:48.591Z,13.13
2018-11-03T11:32:51.895Z,13.37
2018-11-03T11:34:54.885Z,13.48
2018-11-03T11:36:57.989Z,13.58
2018-11-03T11:39:00.979Z,13.45
2018-11-03T11:41:05.315Z,13.82
2018-11-03T11:43:09.535Z,13.90
2018-11-03T11:45:12.407Z,13.97
2018-11-03T11:47:15.425Z,14.10
2018-11-03T11:49:18.488Z,14.37
2018-11-03T11:51:21.503Z,14.30
2018-11-03T11:53:24.465Z,14.20
2018-11-03T11:55:27.506Z,14.25
2018-11-03T11:57:30.648Z,14.23
2018-11-03T11:59:34.685Z,14.17
2018-11-03T12:01:37.885Z,14.23
2018-11-03T12:03:40.899Z,14.21
2018-11-03T12:05:43.897Z,14.09
2018-11-03T12:07:46.896Z,14.17
2018-11-03T12:09:50.188Z,14.24
2018-11-03T12:11:53.208Z,14.20
2018-11-03T12:13:56.495Z,13.96
2018-11-03T12:15:59.551Z,14.08
2018-11-03T12:18:04.439Z,14.30
2018-11-03T12:20:08.128Z,14.24
2018-11-03T12:22:11.491Z,14.21
2018-11-03T12:24:14.846Z,14.35
2018-11-03T12:26:17.894Z,14.31
2018-11-03T12:28:20.917Z,14.46
2018-11-03T12:30:23.929Z,14.51
2018-11-03T12:32:26.986Z,14.41
2018-11-03T12:34:30.017Z,14.31
2018-11-03T12:36:34.878Z,14.21
2018-11-03T12:38:38.026Z,14.38
2018-11-03T12:40:41.058Z,14.38
2018-11-03T12:42:44.474Z,14.38
2018-11-03T12:44:47.442Z,14.43
2018-11-03T12:46:50.460Z,14.59
2018-11-03T12:48:54.093Z,14.49
2018-11-03T12:50:57.054Z,14.62
2018-11-03T12:53:00.058Z,14.67
2018-11-03T12:55:05.326Z,14.60
2018-11-03T12:57:08.367Z,14.52
2018-11-03T12:59:11.418Z,14.58
2018-11-03T13:01:14.467Z,14.28
2018-11-03T13:03:17.578Z,14.53
2018-11-03T13:05:20.764Z,14.68
2018-11-03T13:07:24.696Z,14.67
2018-11-03T13:09:27.818Z,14.66
2018-11-03T13:11:30.692Z,14.62
2018-11-03T13:13:35.083Z,14.68
2018-11-03T13:15:38.117Z,14.66
2018-11-03T13:17:41.062Z,14.76
2018-11-03T13:19:44.067Z,14.96
2018-11-03T13:21:47.123Z,14.66
2018-11-03T13:23:50.532Z,14.80
2018-11-03T13:25:53.579Z,14.97
2018-11-03T13:27:56.625Z,14.84
2018-11-03T13:29:59.609Z,14.44
2018-11-03T13:32:03.746Z,14.96
2018-11-03T13:34:06.858Z,14.69
2018-11-03T13:36:09.895Z,14.57
2018-11-03T13:38:12.848Z,14.85
2018-11-03T13:40:15.875Z,15.10
2018-11-03T13:42:18.934Z,14.72
2018-11-03T13:44:22.019Z,14.85
2018-11-03T13:46:25.033Z,14.96
2018-11-03T13:48:28.037Z,15.06
2018-11-03T13:50:31.094Z,15.12
2018-11-03T13:52:34.853Z,15.24
2018-11-03T13:54:37.918Z,14.89
2018-11-03T13:56:40.955Z,15.06
2018-11-03T13:58:44.292Z,15.14
2018-11-03T14:00:47.395Z,14.94
2018-11-03T14:02:50.425Z,14.57
2018-11-03T14:04:53.575Z,14.89
2018-11-03T14:06:56.662Z,15.06
2018-11-03T14:08:59.909Z,15.15
2018-11-03T14:11:04.232Z,14.88
2018-11-03T14:13:07.323Z,15.06
2018-11-03T14:15:12.064Z,14.73
2018-11-03T14:17:15.109Z,14.49
2018-11-03T14:19:18.087Z,14.36
2018-11-03T14:21:21.087Z,14.49
2018-11-03T14:23:24.156Z,14.40
2018-11-03T14:25:27.114Z,14.37
2018-11-03T14:27:30.174Z,14.41
2018-11-03T14:29:34.757Z,14.22
2018-11-03T14:31:37.778Z,14.28
2018-11-03T14:33:40.771Z,14.17
2018-11-03T14:35:43.753Z,14.04
2018-11-03T14:37:46.750Z,14.19
2018-11-03T14:39:49.747Z,14.08
2018-11-03T14:41:52.787Z,14.18
2018-11-03T14:43:55.763Z,13.68
2018-11-03T14:45:58.848Z,13.85
2018-11-03T14:48:03.681Z,13.92
2018-11-03T14:50:07.913Z,13.46
2018-11-03T14:52:10.929Z,13.75
2018-11-03T14:54:13.951Z,13.83
2018-11-03T14:56:17.005Z,13.72
2018-11-03T14:58:20.007Z,13.65
2018-11-03T15:00:23.304Z,13.53
2018-11-03T15:02:26.275Z,13.30
2018-11-03T15:04:29.369Z,13.27
2018-11-03T15:06:33.721Z,13.07
2018-11-03T15:08:36.852Z,13.01
2018-11-03T15:10:39.791Z,13.17
2018-11-03T15:12:44.080Z,13.08
2018-11-03T15:14:47.088Z,12.85
2018-11-03T15:16:50.113Z,12.70
2018-11-03T15:18:53.250Z,12.69
2018-11-03T15:20:56.210Z,12.63
2018-11-03T15:22:59.215Z,12.51
2018-11-03T15:25:03.723Z,12.33
2018-11-03T15:27:06.735Z,12.25
2018-11-03T15:29:09.760Z,12.12
2018-11-03T15:31:12.893Z,11.98
2018-11-03T15:33:15.914Z,11.92
2018-11-03T15:35:18.870Z,11.80
2018-11-03T15:37:21.950Z,11.73
2018-11-03T15:39:24.926Z,11.72
2018-11-03T15:41:27.984Z,11.76
2018-11-03T15:43:30.968Z,11.61
2018-11-03T15:45:35.323Z,11.46
2018-11-03T15:47:38.378Z,11.41
2018-11-03T15:49:41.404Z,11.16
2018-11-03T15:51:44.380Z,11.01
2018-11-03T15:53:48.290Z,10.87
2018-11-03T15:55:51.251Z,10.97
2018-11-03T15:57:54.246Z,10.92
2018-11-03T15:59:57.266Z,10.66
2018-11-03T16:02:00.311Z,10.57
2018-11-03T16:04:03.710Z,10.57
2018-11-03T16:06:06.731Z,10.51
2018-11-03T16:08:09.840Z,10.56
2018-11-03T16:10:12.911Z,10.33
2018-11-03T16:12:15.998Z,10.20
2018-11-03T16:14:19.023Z,10.27
2018-11-03T16:16:22.107Z,10.26
2018-11-03T16:18:25.151Z,10.14
2018-11-03T16:20:28.214Z,10.00
2018-11-03T16:22:31.411Z,9.85
2018-11-03T16:24:35.688Z,9.81
2018-11-03T16:26:38.945Z,9.82
2018-11-03T16:28:41.948Z,9.79
2018-11-03T16:30:45.656Z,9.78
2018-11-03T16:32:49.351Z,9.93
2018-11-03T16:34:52.485Z,9.94
2018-11-03T16:36:55.500Z,9.77
2018-11-03T16:38:58.477Z,9.98
2018-11-03T16:41:01.480Z,9.79
2018-11-03T16:43:06.015Z,9.88
2018-11-03T16:45:10.496Z,9.81
2018-11-03T16:47:13.470Z,9.61
2018-11-03T16:49:18.911Z,9.33
2018-11-03T16:51:21.999Z,9.17
2018-11-03T16:53:25.018Z,9.13
2018-11-03T16:55:29.650Z,9.14
2018-11-03T16:57:33.654Z,9.22
2018-11-03T16:59:36.712Z,9.43
2018-11-03T17:01:39.682Z,9.33
2018-11-03T17:03:42.795Z,9.18
2018-11-03T17:05:45.839Z,9.14
2018-11-03T17:07:48.870Z,8.97
2018-11-03T17:09:51.982Z,8.83
2018-11-03T17:11:55.856Z,8.73
2018-11-03T17:13:58.846Z,8.69
2018-11-03T17:16:02.392Z,8.71
2018-11-03T17:18:05.589Z,8.63
2018-11-03T17:20:09.280Z,8.53
2018-11-03T17:22:12.324Z,8.36
2018-11-03T17:24:15.466Z,8.29
2018-11-03T17:26:18.625Z,8.25
2018-11-03T17:28:21.746Z,8.18
2018-11-03T17:30:24.762Z,8.08
2018-11-03T17:32:27.790Z,8.01
2018-11-03T17:34:31.379Z,7.84
2018-11-03T17:36:34.489Z,7.67
2018-11-03T17:38:37.555Z,7.59
2018-11-03T17:40:40.598Z,7.50
2018-11-03T17:42:43.619Z,7.49
2018-11-03T17:44:46.714Z,7.57
2018-11-03T17:46:49.843Z,7.53
2018-11-03T17:48:52.889Z,7.57
2018-11-03T17:50:55.909Z,7.89
2018-11-03T17:52:58.924Z,7.67
2018-11-03T17:55:02.718Z,7.43
2018-11-03T17:57:05.926Z,7.38
2018-11-03T17:59:09.029Z,7.34
2018-11-03T18:01:12.178Z,7.32
2018-11-03T18:03:15.077Z,7.33
2018-11-03T18:05:18.115Z,7.61
2018-11-03T18:07:21.270Z,7.62
2018-11-03T18:09:26.118Z,7.60
2018-11-03T18:11:29.208Z,7.63
2018-11-03T18:13:33.820Z,7.40
2018-11-03T18:15:36.985Z,7.28
2018-11-03T18:17:40.556Z,7.23
2018-11-03T18:19:43.729Z,7.17
2018-11-03T18:21:46.728Z,7.11
2018-11-03T18:23:49.743Z,7.11
2018-11-03T18:25:53.374Z,7.23
2018-11-03T18:27:56.588Z,7.14
2018-11-03T18:29:59.644Z,7.08
2018-11-03T18:32:04.370Z,6.96
2018-11-03T18:34:07.456Z,6.89
2018-11-03T18:36:10.496Z,6.88
2018-11-03T18:38:13.844Z,6.89
2018-11-03T18:40:16.961Z,6.79
2018-11-03T18:42:20.082Z,6.73
2018-11-03T18:44:23.420Z,6.71
2018-11-03T18:46:26.421Z,6.92
2018-11-03T18:48:29.466Z,6.92
2018-11-03T18:50:33.878Z,6.77
2018-11-03T18:52:36.903Z,6.76
2018-11-03T18:54:39.988Z,6.78
2018-11-03T18:56:43.027Z,6.60
2018-11-03T18:58:47.466Z,6.69
2018-11-03T19:00:50.527Z,6.61
2018-11-03T19:02:53.639Z,6.60
2018-11-03T19:04:56.723Z,6.36
2018-11-03T19:06:59.891Z,6.29
2018-11-03T19:09:05.563Z,6.31
2018-11-03T19:11:09.268Z,6.07
2018-11-03T19:13:12.592Z,5.92
2018-11-03T19:15:15.672Z,5.87
2018-11-03T19:17:19.018Z,5.88
2018-11-03T19:19:22.045Z,5.97
2018-11-03T19:21:25.086Z,6.06
2018-11-03T19:23:28.157Z,6.02
2018-11-03T19:25:31.214Z,6.11
2018-11-03T19:27:34.993Z,6.14
2018-11-03T19:29:38.186Z,6.09
2018-11-03T19:31:41.207Z,6.00
2018-11-03T19:33:44.506Z,5.98
2018-11-03T19:35:47.608Z,5.95
2018-11-03T19:37:50.576Z,6.02
2018-11-03T19:39:53.596Z,5.94
2018-11-03T19:41:56.619Z,5.96
2018-11-03T19:43:59.619Z,5.97
2018-11-03T19:46:04.189Z,6.01
2018-11-03T19:48:07.220Z,5.95
2018-11-03T19:50:10.313Z,5.97
2018-11-03T19:52:13.378Z,5.93
2018-11-03T19:54:16.760Z,6.04
2018-11-03T19:56:19.770Z,5.98
2018-11-03T19:58:22.877Z,5.94
2018-11-03T20:00:25.926Z,5.88
2018-11-03T20:02:29.084Z,5.81
2018-11-03T20:04:34.053Z,5.90
2018-11-03T20:06:37.213Z,5.94
2018-11-03T20:08:40.250Z,6.01
2018-11-03T20:10:43.244Z,6.08
2018-11-03T20:12:47.341Z,5.91
2018-11-03T20:14:50.700Z,5.91
2018-11-03T20:16:54.043Z,5.87
2018-11-03T20:18:57.018Z,5.73
2018-11-03T20:20:59.997Z,5.72
2018-11-03T20:23:05.285Z,5.89
2018-11-03T20:25:09.891Z,6.19
2018-11-03T20:27:12.933Z,6.19
2018-11-03T20:29:15.968Z,5.85
2018-11-03T20:31:19.146Z,5.59
2018-11-03T20:33:23.350Z,5.48
2018-11-03T20:35:26.494Z,5.18
2018-11-03T20:37:29.467Z,5.24
2018-11-03T20:39:33.895Z,5.41
2018-11-03T20:41:38.492Z,5.54
2018-11-03T20:43:41.892Z,5.60
2018-11-03T20:45:44.891Z,5.69
2018-11-03T20:47:48.066Z,5.81
2018-11-03T20:49:51.071Z,5.89
2018-11-03T20:51:54.197Z,5.85
2018-11-03T20:53:57.320Z,5.75
2018-11-03T20:56:00.457Z,5.55
2018-11-03T20:58:05.835Z,5.33
2018-11-03T21:00:12.022Z,5.30
2018-11-03T21:02:15.223Z,5.15
2018-11-03T21:04:18.305Z,5.18
2018-11-03T21:06:21.368Z,5.08
2018-11-03T21:08:24.688Z,4.96
2018-11-03T21:10:27.653Z,4.90
2018-11-03T21:12:31.042Z,4.89
2018-11-03T21:14:35.837Z,4.89
2018-11-03T21:16:38.971Z,4.90
2018-11-03T21:18:42.049Z,4.80
2018-11-03T21:20:45.091Z,4.84
2018-11-03T21:22:48.148Z,4.82
2018-11-03T21:24:51.114Z,4.78
2018-11-03T21:26:54.284Z,4.67
2018-11-03T21:28:57.245Z,4.84
2018-11-03T21:31:00.348Z,4.74
2018-11-03T21:33:05.459Z,4.64
2018-11-03T21:35:08.223Z,4.72
2018-11-03T21:37:11.276Z,4.71
2018-11-03T21:39:15.208Z,4.79
2018-11-03T21:41:18.415Z,4.90
2018-11-03T21:43:21.486Z,4.76
2018-11-03T21:45:24.786Z,4.77
2018-11-03T21:47:27.815Z,4.71
2018-11-03T21:49:31.034Z,4.72
2018-11-03T21:51:35.366Z,4.56
2018-11-03T21:53:38.368Z,4.53
2018-11-03T21:55:41.546Z,4.55
2018-11-03T21:57:44.590Z,4.61
2018-11-03T21:59:47.710Z,4.59
2018-11-03T22:01:50.706Z,4.54
2018-11-03T22:03:53.963Z,4.83
2018-11-03T22:05:56.954Z,4.81
2018-11-03T22:08:00.135Z,4.69
2018-11-03T22:10:05.384Z,4.52
2018-11-03T22:12:08.446Z,4.48
2018-11-03T22:14:11.700Z,4.57
2018-11-03T22:16:14.639Z,4.49
2018-11-03T22:18:17.782Z,4.52
2018-11-03T22:20:21.145Z,4.48
2018-11-03T22:22:24.146Z,4.47
2018-11-03T22:24:27.445Z,4.45
2018-11-03T22:26:30.991Z,4.46
2018-11-03T22:28:35.283Z,4.54
2018-11-03T22:30:38.335Z,4.51
2018-11-03T22:32:41.492Z,4.55
2018-11-03T22:34:44.453Z,4.60
2018-11-03T22:36:47.538Z,4.62
2018-11-03T22:38:51.039Z,4.63
2018-11-03T22:40:54.089Z,4.61
2018-11-03T22:42:57.072Z,4.62
2018-11-03T22:45:00.099Z,4.63
2018-11-03T22:47:04.626Z,4.60
2018-11-03T22:49:07.604Z,4.62
2018-11-03T22:51:14.197Z,4.59
2018-11-03T22:53:17.363Z,4.55
2018-11-03T22:55:20.330Z,4.60
2018-11-03T22:57:23.362Z,4.66
2018-11-03T22:59:26.424Z,4.71
2018-11-03T23:01:29.418Z,4.76
2018-11-03T23:03:33.945Z,4.91
2018-11-03T23:05:36.956Z,4.89
2018-11-03T23:07:40.204Z,4.82
2018-11-03T23:09:43.229Z,4.83
2018-11-03T23:11:46.335Z,4.96
2018-11-03T23:13:49.385Z,4.93
2018-11-03T23:15:52.371Z,4.93
2018-11-03T23:17:55.501Z,4.94
2018-11-03T23:19:58.572Z,5.04
2018-11-03T23:22:03.207Z,5.06
2018-11-03T23:24:06.671Z,5.08
2018-11-03T23:26:09.682Z,5.10
2018-11-03T23:28:12.831Z,5.14
2018-11-03T23:30:15.940Z,5.17
2018-11-03T23:32:18.983Z,5.28
2018-11-03T23:34:22.018Z,5.29
2018-11-03T23:36:25.257Z,5.33
2018-11-03T23:38:28.504Z,5.38
2018-11-03T23:40:33.283Z,5.41
2018-11-03T23:42:36.406Z,5.59
2018-11-03T23:44:39.489Z,5.97
2018-11-03T23:46:42.770Z,6.15
2018-11-03T23:48:45.920Z,6.02
2018-11-03T23:50:49.082Z,5.99
2018-11-03T23:52:52.247Z,6.01
2018-11-03T23:54:55.305Z,5.98
2018-11-03T23:56:58.356Z,5.97
2018-11-03T23:59:02.762Z,5.98
